Time;durP1;ratioP1;P1;durP2;ratioP2;P2;SDS_P1;SDS_P2;PMS_P1;PMS_P2;Temp;Humidity;BMP_temperature;BMP_pressure;BME280_temperature;BME280_humidity;BME280_pressure;Samples;Min_cycle;Max_cycle;Signal;HPM_P1;HPM_P2
2023/08/19 00:00:03;;;;;;;2.03;0.77;;;;;;;;;;4948409;29;20409;-83
2023/08/19 00:02:43;;;;;;;2.85;1.02;;;;;;;;;;4933956;29;20062;-86
2023/08/19 00:05:15;;;;;;;1.92;0.70;;;;;;;;;;4943236;29;20066;-83
2023/08/19 00:07:50;;;;;;;4.13;1.00;;;;;;;;;;4943858;29;20048;-84
2023/08/19 00:10:21;;;;;;;4.45;1.30;;;;;;;;;;4934705;29;20422;-83
2023/08/19 00:12:53;;;;;;;2.45;1.40;;;;;;;;;;4934559;29;20052;-86
2023/08/19 00:15:26;;;;;;;4.00;1.27;;;;;;;;;;4917001;29;20062;-84
2023/08/19 00:18:00;;;;;;;2.63;1.30;;;;;;;;;;4916791;29;20051;-85
2023/08/19 00:20:33;;;;;;;2.10;1.10;;;;;;;;;;4918578;29;20078;-83
2023/08/19 00:23:04;;;;;;;4.35;1.10;;;;;;;;;;4916539;29;20519;-83
2023/08/19 00:25:38;;;;;;;4.22;1.20;;;;;;;;;;4935218;29;20051;-84
2023/08/19 00:28:13;;;;;;;;;;;;;;;;;;4918661;29;20047;-83
2023/08/19 00:30:44;;;;;;;5.05;1.48;;;;;;;;;;4917414;29;19923;-84
2023/08/19 00:33:17;;;;;;;3.10;1.17;;;;;;;;;;4902079;29;20048;-82
2023/08/19 00:35:53;;;;;;;2.15;1.13;;;;;;;;;;4902253;29;20446;-84
2023/08/19 00:38:26;;;;;;;5.78;1.80;;;;;;;;;;4918119;29;20047;-83
2023/08/19 00:40:56;;;;;;;4.38;2.47;;;;;;;;;;4917126;29;20420;-83
2023/08/19 00:43:31;;;;;;;3.78;1.45;;;;;;;;;;4924860;29;20051;-82
2023/08/19 00:46:04;;;;;;;3.40;1.40;;;;;;;;;;4909778;29;20051;-82
2023/08/19 00:48:42;;;;;;;2.10;1.10;;;;;;;;;;4924660;29;20506;-82
2023/08/19 00:51:17;;;;;;;4.97;1.30;;;;;;;;;;4920542;29;20058;-85
2023/08/19 00:53:49;;;;;;;3.70;1.20;;;;;;;;;;4905174;29;20104;-83
2023/08/19 00:56:21;;;;;;;2.33;1.05;;;;;;;;;;4920674;29;20048;-83
2023/08/19 00:58:56;;;;;;;2.80;0.98;;;;;;;;;;4921117;29;20062;-85
2023/08/19 01:01:27;;;;;;;3.22;1.30;;;;;;;;;;4921250;29;20052;-83
2023/08/19 01:03:57;;;;;;;2.33;1.08;;;;;;;;;;4921508;29;20048;-83
2023/08/19 01:07:12;;;;;;;2.00;1.02;;;;;;;;;;4920185;29;20056;-86
2023/08/19 01:09:48;;;;;;;3.00;1.40;;;;;;;;;;4812766;29;20054;-83
2023/08/19 01:12:48;;;;;;;2.78;1.08;;;;;;;;;;4926532;29;20064;-85
2023/08/19 01:15:32;;;;;;;3.22;1.20;;;;;;;;;;4921762;29;20383;-83
2023/08/19 01:18:08;;;;;;;4.00;1.10;;;;;;;;;;4905236;29;20051;-83
2023/08/19 01:20:41;;;;;;;2.63;1.30;;;;;;;;;;4919987;29;20407;-86
2023/08/19 01:23:23;;;;;;;2.50;1.00;;;;;;;;;;4905491;29;20052;-83
2023/08/19 01:25:55;;;;;;;2.45;1.20;;;;;;;;;;4938222;29;20040;-83
2023/08/19 01:28:27;;;;;;;4.45;1.65;;;;;;;;;;4920753;29;20047;-84
2023/08/19 01:31:01;;;;;;;4.80;1.10;;;;;;;;;;4920605;29;20060;-86
2023/08/19 01:33:35;;;;;;;6.40;1.33;;;;;;;;;;4923241;29;20048;-83
2023/08/19 01:36:23;;;;;;;2.33;1.23;;;;;;;;;;4906460;29;20048;-83
2023/08/19 01:39:02;;;;;;;4.05;1.20;;;;;;;;;;4920010;29;20055;-85
2023/08/19 01:41:35;;;;;;;4.47;1.45;;;;;;;;;;4919858;29;20052;-83
2023/08/19 01:44:08;;;;;;;3.03;1.00;;;;;;;;;;4919700;29;20052;-85
2023/08/19 01:46:39;;;;;;;3.55;1.15;;;;;;;;;;4920463;29;20052;-83
2023/08/19 01:49:09;;;;;;;2.42;1.13;;;;;;;;;;4904381;29;20055;-82
2023/08/19 01:51:41;;;;;;;3.75;1.20;;;;;;;;;;4921094;29;20040;-82
2023/08/19 01:54:12;;;;;;;2.70;1.10;;;;;;;;;;4918815;29;20051;-83
2023/08/19 01:56:44;;;;;;;2.50;0.98;;;;;;;;;;4919629;29;20058;-82
2023/08/19 01:59:15;;;;;;;2.42;1.33;;;;;;;;;;4938472;29;20058;-82
2023/08/19 02:01:47;;;;;;;4.32;1.27;;;;;;;;;;4923263;29;20051;-81
2023/08/19 02:04:17;;;;;;;3.15;1.50;;;;;;;;;;4923725;29;20051;-81
2023/08/19 02:06:49;;;;;;;;;;;;;;;;;;4940472;29;20058;-82
2023/08/19 02:09:19;;;;;;;7.50;2.20;;;;;;;;;;4939454;29;19991;-82
2023/08/19 02:11:52;;;;;;;3.65;1.83;;;;;;;;;;4924183;29;20446;-82
2023/08/19 02:14:24;;;;;;;5.70;2.28;;;;;;;;;;4940437;29;20059;-81
2023/08/19 02:16:55;;;;;;;4.18;1.98;;;;;;;;;;4956547;29;20491;-82
2023/08/19 02:19:26;;;;;;;4.00;1.50;;;;;;;;;;4940883;29;20054;-82
2023/08/19 02:21:57;;;;;;;3.58;1.38;;;;;;;;;;4957047;28;20051;-85
2023/08/19 02:24:34;;;;;;;2.60;1.10;;;;;;;;;;4939676;29;20062;-82
2023/08/19 02:27:06;;;;;;;3.47;1.70;;;;;;;;;;4940374;29;20051;-84
2023/08/19 02:29:36;;;;;;;4.03;1.73;;;;;;;;;;4956657;29;20058;-82
2023/08/19 02:32:11;;;;;;;5.03;1.60;;;;;;;;;;4957247;29;20054;-83
2023/08/19 02:34:43;;;;;;;4.93;1.77;;;;;;;;;;4957011;29;20051;-83
2023/08/19 02:37:14;;;;;;;6.93;1.75;;;;;;;;;;4938996;29;20051;-83
2023/08/19 02:39:44;;;;;;;3.78;1.83;;;;;;;;;;4923274;29;20388;-82
2023/08/19 02:42:16;;;;;;;5.45;1.73;;;;;;;;;;4938904;29;20051;-84
2023/08/19 02:44:49;;;;;;;3.90;1.85;;;;;;;;;;4938327;29;20051;-82
2023/08/19 02:47:21;;;;;;;4.90;1.60;;;;;;;;;;4956925;29;20055;-85
2023/08/19 02:49:52;;;;;;;3.92;1.65;;;;;;;;;;4937977;29;20054;-83
2023/08/19 02:52:27;;;;;;;6.15;1.63;;;;;;;;;;4923480;29;20082;-84
2023/08/19 02:55:01;;;;;;;5.43;2.10;;;;;;;;;;4923815;29;20055;-83
2023/08/19 02:57:31;;;;;;;4.28;1.48;;;;;;;;;;4939511;29;20051;-83
2023/08/19 03:00:02;;;;;;;3.70;1.50;;;;;;;;;;4938946;29;20451;-83
2023/08/19 03:02:37;;;;;;;3.67;1.60;;;;;;;;;;4940107;29;20055;-85
2023/08/19 03:05:09;;;;;;;4.18;1.50;;;;;;;;;;4956290;28;20047;-84
2023/08/19 03:07:40;;;;;;;4.53;1.65;;;;;;;;;;4938373;29;20078;-83
2023/08/19 03:10:10;;;;;;;3.15;1.50;;;;;;;;;;4923734;29;20050;-84
2023/08/19 03:12:41;;;;;;;4.43;1.63;;;;;;;;;;4938925;29;20067;-82
2023/08/19 03:15:15;;;;;;;2.97;1.50;;;;;;;;;;4955843;29;20055;-82
2023/08/19 03:17:45;;;;;;;3.72;1.73;;;;;;;;;;4956365;29;20047;-82
2023/08/19 03:20:16;;;;;;;4.93;2.42;;;;;;;;;;4937538;28;20043;-82
2023/08/19 03:22:47;;;;;;;5.05;1.70;;;;;;;;;;4938711;29;20058;-83
2023/08/19 03:25:18;;;;;;;3.75;2.05;;;;;;;;;;4938650;29;20052;-84
2023/08/19 03:27:49;;;;;;;4.35;1.75;;;;;;;;;;4938223;29;20047;-83
2023/08/19 03:30:20;;;;;;;6.05;1.80;;;;;;;;;;4955611;29;20035;-81
2023/08/19 03:32:52;;;;;;;9.73;3.22;;;;;;;;;;4937336;29;20158;-82
2023/08/19 03:35:24;;;;;;;5.35;2.10;;;;;;;;;;4938505;29;20051;-83
2023/08/19 03:37:57;;;;;;;9.00;2.15;;;;;;;;;;4922762;29;20047;-84
2023/08/19 03:40:28;;;;;;;6.30;2.58;;;;;;;;;;4955601;29;20066;-81
2023/08/19 03:43:00;;;;;;;5.75;2.15;;;;;;;;;;4955434;29;20058;-83
2023/08/19 03:45:36;;;;;;;4.45;2.10;;;;;;;;;;4922956;29;20051;-83
2023/08/19 03:48:07;;;;;;;9.93;2.50;;;;;;;;;;4938927;29;20399;-84
2023/08/19 03:50:38;;;;;;;5.10;2.38;;;;;;;;;;4922095;29;20063;-82
2023/08/19 03:53:10;;;;;;;5.40;2.40;;;;;;;;;;4938015;29;20106;-82
2023/08/19 03:55:42;;;;;;;6.78;2.67;;;;;;;;;;4937325;29;20152;-83
2023/08/19 03:58:12;;;;;;;9.15;3.03;;;;;;;;;;4922029;29;20059;-83
2023/08/19 04:00:44;;;;;;;7.32;2.45;;;;;;;;;;4937826;29;20062;-82
2023/08/19 04:03:28;;;;;;;5.38;2.10;;;;;;;;;;4937622;29;20056;-83
2023/08/19 04:05:59;;;;;;;6.80;1.95;;;;;;;;;;4937977;29;20055;-82
2023/08/19 04:08:32;;;;;;;5.40;2.10;;;;;;;;;;4955473;29;20490;-81
2023/08/19 04:11:08;;;;;;;5.10;2.00;;;;;;;;;;4937612;29;20078;-82
2023/08/19 04:13:41;;;;;;;6.18;2.45;;;;;;;;;;4937397;29;20062;-83
2023/08/19 04:16:14;;;;;;;6.47;2.28;;;;;;;;;;4930380;29;20060;-83
2023/08/19 04:18:45;;;;;;;5.32;2.22;;;;;;;;;;4935936;29;20509;-82
2023/08/19 04:21:15;;;;;;;7.32;2.50;;;;;;;;;;4935987;29;20384;-83
2023/08/19 04:23:48;;;;;;;4.68;2.22;;;;;;;;;;4903078;29;20051;-83
2023/08/19 04:26:22;;;;;;;4.13;2.22;;;;;;;;;;4904093;29;20055;-82
2023/08/19 04:28:52;;;;;;;7.47;2.20;;;;;;;;;;4918109;29;20055;-82
2023/08/19 04:31:23;;;;;;;4.53;1.83;;;;;;;;;;4902965;29;20490;-82
2023/08/19 04:33:59;;;;;;;4.93;2.25;;;;;;;;;;4917623;29;20071;-82
2023/08/19 04:36:32;;;;;;;3.97;1.83;;;;;;;;;;4917926;29;20047;-83
2023/08/19 04:39:07;;;;;;;4.93;1.90;;;;;;;;;;4935740;29;20109;-81
2023/08/19 04:41:39;;;;;;;5.35;2.38;;;;;;;;;;4917706;29;20047;-82
2023/08/19 04:44:12;;;;;;;4.15;1.83;;;;;;;;;;4917573;29;20055;-84
2023/08/19 04:46:46;;;;;;;5.13;2.08;;;;;;;;;;4935431;29;20047;-82
2023/08/19 04:49:17;;;;;;;5.70;2.10;;;;;;;;;;4918372;29;20063;-83
2023/08/19 04:51:47;;;;;;;3.60;1.73;;;;;;;;;;4918021;29;20055;-83
2023/08/19 04:54:19;;;;;;;5.22;2.03;;;;;;;;;;4935260;29;20081;-81
2023/08/19 04:56:52;;;;;;;4.30;1.90;;;;;;;;;;4918753;29;20075;-82
2023/08/19 04:59:23;;;;;;;;;;;;;;;;;;4917650;29;20059;-81
2023/08/19 05:01:53;;;;;;;4.00;1.67;;;;;;;;;;4935906;29;20385;-81
2023/08/19 05:04:23;;;;;;;8.23;1.90;;;;;;;;;;4935535;29;20506;-81
2023/08/19 05:06:54;;;;;;;7.05;2.17;;;;;;;;;;4917766;29;20055;-81
2023/08/19 05:09:26;;;;;;;7.68;2.53;;;;;;;;;;4917234;29;20048;-81
2023/08/19 05:12:01;;;;;;;4.30;1.90;;;;;;;;;;4903114;29;20051;-81
2023/08/19 05:14:32;;;;;;;6.30;1.92;;;;;;;;;;4917557;29;20052;-82
2023/08/19 05:17:03;;;;;;;4.80;1.83;;;;;;;;;;4917722;29;20078;-84
2023/08/19 05:19:36;;;;;;;5.93;2.08;;;;;;;;;;4902399;29;20059;-81
2023/08/19 05:22:11;;;;;;;7.22;2.65;;;;;;;;;;4919353;29;20059;-81
2023/08/19 05:24:42;;;;;;;6.68;2.22;;;;;;;;;;4935374;29;20054;-81
2023/08/19 05:27:15;;;;;;;5.75;2.10;;;;;;;;;;4902446;29;20482;-81
2023/08/19 05:29:46;;;;;;;4.15;2.13;;;;;;;;;;4905595;29;20058;-81
2023/08/19 05:32:17;;;;;;;;;;;;;;;;;;4922597;29;20426;-82
2023/08/19 05:34:47;;;;;;;6.75;3.00;;;;;;;;;;4921616;29;19941;-83
2023/08/19 05:37:17;;;;;;;5.22;2.00;;;;;;;;;;4940307;29;20065;-82
2023/08/19 05:39:49;;;;;;;6.53;2.40;;;;;;;;;;4938826;29;20380;-83
2023/08/19 05:42:21;;;;;;;4.93;2.22;;;;;;;;;;4905872;29;20047;-80
2023/08/19 05:44:54;;;;;;;7.25;2.60;;;;;;;;;;4920891;29;20055;-81
2023/08/19 05:47:27;;;;;;;7.03;2.42;;;;;;;;;;4938425;29;20494;-81
2023/08/19 05:50:00;;;;;;;4.53;2.38;;;;;;;;;;4938343;29;20055;-81
2023/08/19 05:52:36;;;;;;;8.35;2.95;;;;;;;;;;4938390;29;20055;-81
2023/08/19 05:55:07;;;;;;;5.60;2.30;;;;;;;;;;4938585;29;20048;-79
2023/08/19 05:57:41;;;;;;;6.50;2.75;;;;;;;;;;4922069;29;20487;-82
2023/08/19 06:00:15;;;;;;;6.75;2.80;;;;;;;;;;4904946;29;20514;-82
2023/08/19 06:02:45;;;;;;;6.97;2.50;;;;;;;;;;4938051;29;20048;-80
2023/08/19 06:05:16;;;;;;;4.10;2.53;;;;;;;;;;4937844;29;20371;-82
2023/08/19 06:07:46;;;;;;;8.43;2.25;;;;;;;;;;4921967;29;20170;-80
2023/08/19 06:10:19;;;;;;;8.20;2.38;;;;;;;;;;4938313;29;20498;-80
2023/08/19 06:12:56;;;;;;;4.32;2.40;;;;;;;;;;4920746;29;20044;-79
2023/08/19 06:15:31;;;;;;;5.68;2.50;;;;;;;;;;4920254;29;20410;-79
2023/08/19 06:18:01;;;;;;;5.85;2.50;;;;;;;;;;4921028;29;20047;-80
2023/08/19 06:20:37;;;;;;;5.75;2.53;;;;;;;;;;4921621;29;20052;-80
2023/08/19 06:23:09;;;;;;;6.57;2.78;;;;;;;;;;4937463;29;20580;-79
2023/08/19 06:25:42;;;;;;;5.00;2.70;;;;;;;;;;4937468;29;20055;-80
2023/08/19 06:28:19;;;;;;;5.25;2.60;;;;;;;;;;4937024;29;20129;-80
2023/08/19 06:30:53;;;;;;;8.40;3.10;;;;;;;;;;4938205;29;20047;-81
2023/08/19 06:33:24;;;;;;;4.97;2.33;;;;;;;;;;4919830;29;20052;-81
2023/08/19 06:35:58;;;;;;;7.72;2.97;;;;;;;;;;4937725;29;20047;-81
2023/08/19 06:38:30;;;;;;;7.65;2.45;;;;;;;;;;4937456;29;20479;-81
2023/08/19 06:41:09;;;;;;;4.18;2.10;;;;;;;;;;4936721;29;20387;-83
2023/08/19 06:43:40;;;;;;;5.00;2.65;;;;;;;;;;4937339;29;20044;-80
2023/08/19 06:46:13;;;;;;;4.97;2.55;;;;;;;;;;4937618;29;20372;-81
2023/08/19 06:48:45;;;;;;;5.35;2.60;;;;;;;;;;4920056;29;20063;-82
2023/08/19 06:51:16;;;;;;;7.72;3.03;;;;;;;;;;4937372;29;20051;-83
2023/08/19 06:53:48;;;;;;;5.15;2.35;;;;;;;;;;4937594;29;20035;-82
2023/08/19 06:56:33;;;;;;;4.63;2.63;;;;;;;;;;4904559;29;20063;-79
2023/08/19 06:59:13;;;;;;;6.90;2.35;;;;;;;;;;4937207;29;20044;-81
2023/08/19 07:01:51;;;;;;;7.15;2.10;;;;;;;;;;4937291;29;20494;-79
2023/08/19 07:04:27;;;;;;;8.30;2.65;;;;;;;;;;4936601;29;20039;-79
2023/08/19 07:07:03;;;;;;;5.38;2.42;;;;;;;;;;4921939;29;20494;-81
2023/08/19 07:09:36;;;;;;;8.45;2.95;;;;;;;;;;4920646;29;20050;-81
2023/08/19 07:12:07;;;;;;;7.25;2.92;;;;;;;;;;4919340;29;20055;-80
2023/08/19 07:14:40;;;;;;;6.68;2.70;;;;;;;;;;4919782;29;20087;-80
2023/08/19 07:17:17;;;;;;;5.35;2.63;;;;;;;;;;4920565;29;20052;-81
2023/08/19 07:19:51;;;;;;;5.32;2.45;;;;;;;;;;4936867;29;20054;-81
2023/08/19 07:22:26;;;;;;;5.15;2.30;;;;;;;;;;4936888;29;20056;-81
2023/08/19 07:24:57;;;;;;;6.85;2.60;;;;;;;;;;4937236;29;20043;-81
2023/08/19 07:27:32;;;;;;;4.97;2.40;;;;;;;;;;4936693;29;20479;-80
2023/08/19 07:30:04;;;;;;;7.32;2.35;;;;;;;;;;4935429;29;20143;-81
2023/08/19 07:32:36;;;;;;;10.30;2.63;;;;;;;;;;4903189;29;20056;-81
2023/08/19 07:35:08;;;;;;;7.60;2.85;;;;;;;;;;4936496;29;20047;-81
2023/08/19 07:37:41;;;;;;;8.57;2.75;;;;;;;;;;4936886;29;20063;-81
2023/08/19 07:40:14;;;;;;;8.85;2.90;;;;;;;;;;4936753;29;20040;-82
2023/08/19 07:42:46;;;;;;;6.40;2.72;;;;;;;;;;4918855;29;20048;-81
2023/08/19 07:45:17;;;;;;;6.45;2.42;;;;;;;;;;4918619;29;20051;-81
2023/08/19 07:47:51;;;;;;;6.72;2.55;;;;;;;;;;4920619;29;20048;-80
2023/08/19 07:50:26;;;;;;;8.15;2.65;;;;;;;;;;4919444;29;20047;-81
2023/08/19 07:52:59;;;;;;;5.95;2.60;;;;;;;;;;4936039;29;20498;-80
2023/08/19 07:55:33;;;;;;;4.80;2.35;;;;;;;;;;4920547;29;20059;-81
2023/08/19 07:58:04;;;;;;;7.25;3.05;;;;;;;;;;4936552;29;20039;-81
2023/08/19 08:00:35;;;;;;;5.93;3.33;;;;;;;;;;4919166;29;20411;-81
2023/08/19 08:03:09;;;;;;;;;;;;;;;;;;4936848;29;20062;-82
2023/08/19 08:05:40;;;;;;;4.70;2.70;;;;;;;;;;4935177;29;19930;-80
2023/08/19 08:08:12;;;;;;;8.18;3.15;;;;;;;;;;4936094;29;20377;-82
2023/08/19 08:10:45;;;;;;;7.50;2.72;;;;;;;;;;4935889;29;20442;-80
2023/08/19 08:13:19;;;;;;;6.50;2.90;;;;;;;;;;4918141;29;20056;-81
2023/08/19 08:15:50;;;;;;;7.47;2.53;;;;;;;;;;4935900;29;20050;-80
2023/08/19 08:18:20;;;;;;;4.65;2.67;;;;;;;;;;4935805;29;20483;-81
2023/08/19 08:20:53;;;;;;;9.57;2.70;;;;;;;;;;4935589;29;20063;-81
2023/08/19 08:23:28;;;;;;;10.43;3.08;;;;;;;;;;4935922;29;20043;-81
2023/08/19 08:25:58;;;;;;;6.82;2.75;;;;;;;;;;4935201;29;20039;-80
2023/08/19 08:28:29;;;;;;;8.55;3.20;;;;;;;;;;4935578;29;20040;-80
2023/08/19 08:31:00;;;;;;;6.07;2.75;;;;;;;;;;4935579;29;20402;-80
2023/08/19 08:33:37;;;;;;;6.90;2.70;;;;;;;;;;4935706;29;20044;-80
2023/08/19 08:36:08;;;;;;;5.57;2.50;;;;;;;;;;4917362;29;20056;-80
2023/08/19 08:38:40;;;;;;;9.05;2.78;;;;;;;;;;4935475;29;20052;-81
2023/08/19 08:41:14;;;;;;;7.60;3.10;;;;;;;;;;4903264;29;20071;-83
2023/08/19 08:43:48;;;;;;;4.95;2.53;;;;;;;;;;4935648;29;20048;-83
2023/08/19 08:46:21;;;;;;;6.80;3.38;;;;;;;;;;4935334;29;20479;-82
2023/08/19 08:48:54;;;;;;;5.50;2.65;;;;;;;;;;4935810;29;20043;-81
2023/08/19 08:51:28;;;;;;;5.05;2.67;;;;;;;;;;4935499;29;20047;-81
2023/08/19 08:54:01;;;;;;;5.57;3.00;;;;;;;;;;4918211;29;20082;-82
2023/08/19 08:56:31;;;;;;;5.63;2.80;;;;;;;;;;4935489;29;20055;-81
2023/08/19 08:59:05;;;;;;;7.28;2.63;;;;;;;;;;4935240;29;20043;-82
2023/08/19 09:01:46;;;;;;;8.48;2.95;;;;;;;;;;4902401;29;20059;-82
2023/08/19 09:04:20;;;;;;;6.13;2.65;;;;;;;;;;4938140;29;20044;-81
2023/08/19 09:06:57;;;;;;;5.35;2.83;;;;;;;;;;4939559;29;20051;-80
2023/08/19 09:09:36;;;;;;;4.50;2.40;;;;;;;;;;4939216;29;20047;-81
2023/08/19 09:12:12;;;;;;;10.10;2.95;;;;;;;;;;4939540;29;20066;-82
2023/08/19 09:14:49;;;;;;;5.90;2.90;;;;;;;;;;4939414;29;20470;-81
2023/08/19 09:17:20;;;;;;;7.82;2.90;;;;;;;;;;4937325;29;20063;-81
2023/08/19 09:19:51;;;;;;;5.30;2.80;;;;;;;;;;4922584;29;20048;-82
2023/08/19 09:22:24;;;;;;;5.70;2.67;;;;;;;;;;4922047;29;20060;-81
2023/08/19 09:24:57;;;;;;;6.20;2.85;;;;;;;;;;4938802;29;20131;-80
2023/08/19 09:27:30;;;;;;;5.53;2.95;;;;;;;;;;4922032;29;20510;-81
2023/08/19 09:30:01;;;;;;;8.52;3.05;;;;;;;;;;4938809;29;20510;-82
2023/08/19 09:32:33;;;;;;;5.85;2.88;;;;;;;;;;4921006;29;20059;-82
2023/08/19 09:35:14;;;;;;;5.88;2.80;;;;;;;;;;4921375;29;20059;-81
2023/08/19 09:37:46;;;;;;;5.82;3.17;;;;;;;;;;4921089;29;20174;-82
2023/08/19 09:40:21;;;;;;;6.60;3.03;;;;;;;;;;4938628;29;20077;-81
2023/08/19 09:42:52;;;;;;;7.35;3.08;;;;;;;;;;4938437;29;20043;-81
2023/08/19 09:45:29;;;;;;;4.68;2.50;;;;;;;;;;4906498;29;20086;-81
2023/08/19 09:48:06;;;;;;;5.72;2.72;;;;;;;;;;4936291;29;20497;-81
2023/08/19 09:50:45;;;;;;;4.95;2.42;;;;;;;;;;4942414;29;20039;-81
2023/08/19 09:53:19;;;;;;;4.70;2.63;;;;;;;;;;4955228;29;20150;-82
2023/08/19 09:55:54;;;;;;;6.47;2.85;;;;;;;;;;4946370;29;20070;-83
2023/08/19 09:58:25;;;;;;;8.48;2.88;;;;;;;;;;4952619;29;20047;-81
2023/08/19 10:00:56;;;;;;;5.07;2.45;;;;;;;;;;4958359;29;20047;-82
2023/08/19 10:03:28;;;;;;;5.75;2.47;;;;;;;;;;4952373;29;20052;-81
2023/08/19 10:06:01;;;;;;;6.88;3.03;;;;;;;;;;4938495;29;20082;-82
2023/08/19 10:08:33;;;;;;;12.35;3.15;;;;;;;;;;4957691;29;20052;-80
2023/08/19 10:11:07;;;;;;;6.90;3.25;;;;;;;;;;4941561;29;20051;-81
2023/08/19 10:13:42;;;;;;;6.57;2.35;;;;;;;;;;4942286;28;20051;-80
2023/08/19 10:16:14;;;;;;;5.38;2.65;;;;;;;;;;4965172;28;20048;-79
2023/08/19 10:18:47;;;;;;;4.68;2.40;;;;;;;;;;4957503;29;20042;-82
2023/08/19 10:21:23;;;;;;;6.43;2.83;;;;;;;;;;4950587;29;20051;-81
2023/08/19 10:23:56;;;;;;;5.68;2.40;;;;;;;;;;4923138;29;20043;-82
2023/08/19 10:26:28;;;;;;;;;;;;;;;;;;4923651;29;20039;-82
2023/08/19 10:29:03;;;;;;;;;;;;;;;;;;4937876;29;20275;-82
2023/08/19 10:31:35;;;;;;;6.50;2.70;;;;;;;;;;4937112;29;19922;-80
2023/08/19 10:34:24;;;;;;;5.28;2.55;;;;;;;;;;4920519;29;20054;-82
2023/08/19 10:37:08;;;;;;;7.78;4.07;;;;;;;;;;4920751;29;20384;-82
2023/08/19 10:39:38;;;;;;;5.75;3.10;;;;;;;;;;4920528;29;20510;-84
2023/08/19 10:42:14;;;;;;;4.15;2.30;;;;;;;;;;4937376;29;20048;-82
2023/08/19 10:44:46;;;;;;;6.15;2.33;;;;;;;;;;4919687;29;20388;-82
2023/08/19 10:47:23;;;;;;;4.90;2.60;;;;;;;;;;4903771;29;20059;-82
2023/08/19 10:50:04;;;;;;;5.68;2.80;;;;;;;;;;4937283;29;20048;-82
2023/08/19 10:53:06;;;;;;;4.40;2.53;;;;;;;;;;4936787;29;20051;-82
2023/08/19 10:55:54;;;;;;;6.90;2.17;;;;;;;;;;4936631;29;20052;-82
2023/08/19 10:58:28;;;;;;;6.18;2.00;;;;;;;;;;4919922;29;20044;-82
2023/08/19 11:01:01;;;;;;;5.68;2.33;;;;;;;;;;4936534;29;20048;-82
2023/08/19 11:03:34;;;;;;;5.35;2.35;;;;;;;;;;4920017;29;20518;-82
2023/08/19 11:06:09;;;;;;;5.15;2.33;;;;;;;;;;4918433;29;20059;-81
2023/08/19 11:08:43;;;;;;;5.00;2.05;;;;;;;;;;4917949;29;20502;-81
2023/08/19 11:11:16;;;;;;;7.20;2.40;;;;;;;;;;4918579;29;20063;-81
2023/08/19 11:13:47;;;;;;;7.07;2.45;;;;;;;;;;4936333;29;20047;-81
2023/08/19 11:16:18;;;;;;;8.80;2.67;;;;;;;;;;4935957;29;20518;-82
2023/08/19 11:18:53;;;;;;;6.13;2.40;;;;;;;;;;4936445;29;20055;-80
2023/08/19 11:21:27;;;;;;;5.20;2.42;;;;;;;;;;4940625;29;20422;-83
2023/08/19 11:23:57;;;;;;;8.77;2.25;;;;;;;;;;4935927;29;20055;-83
2023/08/19 11:26:27;;;;;;;7.28;2.38;;;;;;;;;;4935237;29;20051;-81
2023/08/19 11:29:01;;;;;;;6.05;2.30;;;;;;;;;;4917690;29;20063;-80
2023/08/19 11:31:38;;;;;;;4.05;2.22;;;;;;;;;;4935569;29;20048;-79
2023/08/19 11:34:12;;;;;;;5.60;2.38;;;;;;;;;;4918071;29;20063;-80
2023/08/19 11:36:44;;;;;;;6.50;2.13;;;;;;;;;;4936335;29;20051;-81
2023/08/19 11:39:18;;;;;;;9.75;2.40;;;;;;;;;;4919438;29;20048;-80
2023/08/19 11:41:48;;;;;;;5.05;1.98;;;;;;;;;;4903278;29;20056;-80
2023/08/19 11:44:22;;;;;;;3.95;2.47;;;;;;;;;;4922410;29;20523;-82
2023/08/19 11:46:56;;;;;;;6.55;2.10;;;;;;;;;;4954170;29;20047;-81
2023/08/19 11:49:31;;;;;;;5.25;2.00;;;;;;;;;;4933981;29;20054;-81
2023/08/19 11:52:01;;;;;;;4.55;2.03;;;;;;;;;;4935258;29;20050;-81
2023/08/19 11:54:33;;;;;;;4.47;1.92;;;;;;;;;;4937957;29;20047;-80
2023/08/19 11:57:06;;;;;;;4.55;2.22;;;;;;;;;;4929881;29;20044;-79
2023/08/19 11:59:39;;;;;;;5.72;2.55;;;;;;;;;;4954279;29;20513;-80
2023/08/19 12:02:10;;;;;;;7.25;2.05;;;;;;;;;;4945581;29;20058;-82
2023/08/19 12:04:40;;;;;;;7.13;2.38;;;;;;;;;;4944104;29;20454;-81
2023/08/19 12:07:13;;;;;;;7.50;2.60;;;;;;;;;;4926654;29;20442;-83
2023/08/19 12:09:48;;;;;;;6.25;2.13;;;;;;;;;;4911987;29;20403;-82
2023/08/19 12:12:20;;;;;;;5.43;2.65;;;;;;;;;;4946492;29;20055;-84
2023/08/19 12:14:53;;;;;;;3.83;2.13;;;;;;;;;;4925725;29;20513;-80
2023/08/19 12:17:26;;;;;;;4.97;2.60;;;;;;;;;;4926863;29;20423;-82
2023/08/19 12:20:02;;;;;;;3.95;2.00;;;;;;;;;;4945718;29;20051;-82
2023/08/19 12:22:36;;;;;;;4.82;2.00;;;;;;;;;;4943532;29;20048;-82
2023/08/19 12:25:09;;;;;;;6.72;2.30;;;;;;;;;;4911480;29;20058;-81
2023/08/19 12:27:41;;;;;;;3.53;1.60;;;;;;;;;;4942190;29;20174;-80
2023/08/19 12:30:12;;;;;;;3.45;1.58;;;;;;;;;;4927162;29;20048;-81
2023/08/19 12:32:43;;;;;;;4.43;1.88;;;;;;;;;;4927839;29;20063;-80
2023/08/19 12:35:13;;;;;;;4.38;2.03;;;;;;;;;;4942251;29;20039;-80
2023/08/19 12:37:44;;;;;;;6.18;3.22;;;;;;;;;;4942836;29;20047;-82
2023/08/19 12:40:19;;;;;;;5.93;3.25;;;;;;;;;;4943539;29;20046;-82
2023/08/19 12:42:53;;;;;;;10.23;2.55;;;;;;;;;;4925884;29;20043;-81
2023/08/19 12:45:27;;;;;;;6.60;3.28;;;;;;;;;;4926116;29;20130;-82
2023/08/19 12:48:01;;;;;;;6.18;3.50;;;;;;;;;;4934562;29;20040;-82
2023/08/19 12:50:34;;;;;;;7.53;3.40;;;;;;;;;;4943234;29;20529;-83
2023/08/19 12:53:06;;;;;;;5.25;2.90;;;;;;;;;;4905180;29;20051;-84
2023/08/19 12:55:39;;;;;;;5.07;2.72;;;;;;;;;;4919134;29;20405;-83
2023/08/19 12:58:12;;;;;;;4.95;1.98;;;;;;;;;;4938344;29;20052;-83
2023/08/19 13:00:43;;;;;;;3.47;1.75;;;;;;;;;;4917052;29;20537;-81
2023/08/19 13:03:13;;;;;;;3.67;1.92;;;;;;;;;;4934572;29;20046;-82
2023/08/19 13:05:43;;;;;;;5.03;1.80;;;;;;;;;;4917993;29;20048;-81
2023/08/19 13:08:20;;;;;;;2.92;1.38;;;;;;;;;;4917704;29;20051;-81
2023/08/19 13:10:51;;;;;;;3.35;2.38;;;;;;;;;;4939914;29;20059;-81
2023/08/19 13:13:21;;;;;;;3.83;1.65;;;;;;;;;;4938831;29;20051;-82
2023/08/19 13:15:54;;;;;;;2.38;1.13;;;;;;;;;;4916909;29;20442;-82
2023/08/19 13:18:27;;;;;;;1.95;1.10;;;;;;;;;;4916720;29;20052;-81
2023/08/19 13:20:58;;;;;;;3.40;1.60;;;;;;;;;;4926904;29;20056;-82
2023/08/19 13:23:29;;;;;;;5.95;1.20;;;;;;;;;;4944392;29;20058;-80
2023/08/19 13:25:59;;;;;;;5.00;1.38;;;;;;;;;;4943515;29;20463;-81
2023/08/19 13:28:37;;;;;;;4.80;1.05;;;;;;;;;;4927939;29;20043;-82
2023/08/19 13:31:09;;;;;;;2.08;1.35;;;;;;;;;;4927481;29;20384;-82
2023/08/19 13:33:40;;;;;;;4.57;2.50;;;;;;;;;;4943480;29;20446;-82
2023/08/19 13:36:14;;;;;;;1.63;0.98;;;;;;;;;;4944410;29;20125;-82
2023/08/19 13:38:48;;;;;;;1.83;1.00;;;;;;;;;;4925699;29;20048;-82
2023/08/19 13:41:21;;;;;;;2.35;1.20;;;;;;;;;;4943308;29;20047;-81
2023/08/19 13:43:54;;;;;;;4.70;2.92;;;;;;;;;;4925964;29;20054;-81
2023/08/19 13:46:25;;;;;;;7.13;4.40;;;;;;;;;;4910414;29;20051;-82
2023/08/19 13:48:56;;;;;;;3.05;1.70;;;;;;;;;;4935941;29;20058;-81
2023/08/19 13:51:28;;;;;;;2.47;1.42;;;;;;;;;;4943863;29;20406;-83
2023/08/19 13:53:58;;;;;;;2.80;1.30;;;;;;;;;;4949276;29;20406;-82
2023/08/19 13:56:30;;;;;;;8.75;2.35;;;;;;;;;;4908322;29;20051;-81
2023/08/19 13:59:01;;;;;;;3.47;1.80;;;;;;;;;;4933880;29;20061;-80
2023/08/19 14:05:47;;;;;;;3.45;1.80;;;;;;;;;;4943407;29;20395;-83
2023/08/19 14:08:17;;;;;;;2.58;1.50;;;;;;;;;;4906036;29;20058;-84
2023/08/19 14:10:51;;;;;;;2.60;1.38;;;;;;;;;;4944765;29;20051;-85
2023/08/19 14:13:24;;;;;;;2.00;1.17;;;;;;;;;;4958117;29;20050;-82
2023/08/19 14:15:55;;;;;;;2.17;1.30;;;;;;;;;;4941275;29;20047;-83
2023/08/19 14:18:28;;;;;;;3.17;1.45;;;;;;;;;;4956198;29;20505;-82
2023/08/19 14:20:58;;;;;;;2.45;1.20;;;;;;;;;;4945398;29;20059;-82
2023/08/19 14:23:30;;;;;;;1.88;1.02;;;;;;;;;;4937284;29;20059;-82
2023/08/19 14:26:04;;;;;;;3.17;0.95;;;;;;;;;;4938222;29;20063;-84
2023/08/19 14:28:40;;;;;;;2.53;1.20;;;;;;;;;;4945290;29;20059;-81
2023/08/19 14:31:11;;;;;;;1.80;1.10;;;;;;;;;;4955396;29;20081;-82
2023/08/19 14:33:44;;;;;;;2.38;1.20;;;;;;;;;;4948098;29;20058;-82
2023/08/19 14:36:13;;;;;;;1.90;1.13;;;;;;;;;;4938363;29;20051;-82
2023/08/19 14:38:50;;;;;;;3.50;1.50;;;;;;;;;;4938721;29;20051;-82
2023/08/19 14:41:22;;;;;;;2.13;0.90;;;;;;;;;;4923566;29;20062;-83
2023/08/19 14:43:53;;;;;;;1.50;0.82;;;;;;;;;;4938724;29;20503;-82
2023/08/19 14:46:23;;;;;;;2.13;1.10;;;;;;;;;;4921467;29;20056;-82
2023/08/19 14:48:57;;;;;;;1.65;1.00;;;;;;;;;;4931523;29;20520;-81
2023/08/19 14:51:28;;;;;;;2.45;1.30;;;;;;;;;;4938760;29;20055;-81
2023/08/19 14:53:59;;;;;;;4.07;1.55;;;;;;;;;;4905229;29;20066;-83
2023/08/19 14:56:30;;;;;;;1.88;1.40;;;;;;;;;;4937790;29;20063;-82
2023/08/19 14:59:02;;;;;;;1.40;0.85;;;;;;;;;;4946996;29;20054;-81
2023/08/19 15:01:36;;;;;;;1.60;0.80;;;;;;;;;;4958719;28;20054;-81
2023/08/19 15:04:10;;;;;;;3.35;1.13;;;;;;;;;;4946176;29;20054;-81
2023/08/19 15:06:40;;;;;;;1.73;1.17;;;;;;;;;;4944622;29;20043;-81
2023/08/19 15:09:13;;;;;;;1.92;0.93;;;;;;;;;;4975738;29;20058;-80
2023/08/19 15:11:44;;;;;;;2.33;1.05;;;;;;;;;;4977970;29;20039;-79
2023/08/19 15:14:20;;;;;;;2.75;0.80;;;;;;;;;;4962976;29;20031;-78
2023/08/19 15:16:54;;;;;;;1.33;0.77;;;;;;;;;;4963735;29;20049;-82
2023/08/19 15:19:27;;;;;;;2.15;1.52;;;;;;;;;;4938880;29;20150;-82
2023/08/19 15:22:03;;;;;;;0.93;0.70;;;;;;;;;;4957698;29;20050;-81
2023/08/19 15:24:35;;;;;;;1.30;0.70;;;;;;;;;;4958057;29;20047;-82